sensor_id;sensor_type;location;lat;lon;timestamp;P1;durP1;ratioP1;P2;durP2;ratioP2
22949;SDS011;11641;51.018;4.474;2022-11-25T00:00:29;22.15;;;3.03;;
22949;SDS011;11641;51.018;4.474;2022-11-25T00:02:54;21.63;;;3.00;;
22949;SDS011;11641;51.018;4.474;2022-11-25T00:05:20;18.73;;;2.58;;
22949;SDS011;11641;51.018;4.474;2022-11-25T00:07:46;21.52;;;2.80;;
22949;SDS011;11641;51.018;4.474;2022-11-25T00:10:11;14.55;;;2.45;;
22949;SDS011;11641;51.018;4.474;2022-11-25T00:12:37;15.45;;;2.53;;
22949;SDS011;11641;51.018;4.474;2022-11-25T00:15:04;12.23;;;2.42;;
22949;SDS011;11641;51.018;4.474;2022-11-25T00:17:30;15.00;;;2.55;;
22949;SDS011;11641;51.018;4.474;2022-11-25T00:19:57;17.75;;;2.92;;
22949;SDS011;11641;51.018;4.474;2022-11-25T00:22:25;13.10;;;2.55;;
22949;SDS011;11641;51.018;4.474;2022-11-25T00:24:51;13.85;;;3.30;;
22949;SDS011;11641;51.018;4.474;2022-11-25T00:27:17;9.43;;;1.80;;
22949;SDS011;11641;51.018;4.474;2022-11-25T00:29:43;17.42;;;2.58;;
22949;SDS011;11641;51.018;4.474;2022-11-25T00:32:08;28.73;;;4.93;;
22949;SDS011;11641;51.018;4.474;2022-11-25T00:34:34;15.98;;;2.45;;
22949;SDS011;11641;51.018;4.474;2022-11-25T00:37:00;17.95;;;3.17;;
22949;SDS011;11641;51.018;4.474;2022-11-25T00:39:25;11.75;;;2.30;;
22949;SDS011;11641;51.018;4.474;2022-11-25T00:41:51;13.45;;;2.55;;
22949;SDS011;11641;51.018;4.474;2022-11-25T00:44:36;13.70;;;2.53;;
22949;SDS011;11641;51.018;4.474;2022-11-25T00:47:04;14.63;;;2.15;;
22949;SDS011;11641;51.018;4.474;2022-11-25T00:49:42;12.90;;;2.20;;
22949;SDS011;11641;51.018;4.474;2022-11-25T00:52:09;13.40;;;1.90;;
22949;SDS011;11641;51.018;4.474;2022-11-25T00:54:39;17.40;;;2.53;;
22949;SDS011;11641;51.018;4.474;2022-11-25T00:57:04;13.07;;;1.40;;
22949;SDS011;11641;51.018;4.474;2022-11-25T00:59:30;14.18;;;1.60;;
22949;SDS011;11641;51.018;4.474;2022-11-25T01:01:56;9.10;;;1.60;;
22949;SDS011;11641;51.018;4.474;2022-11-25T01:04:22;11.63;;;1.80;;
22949;SDS011;11641;51.018;4.474;2022-11-25T01:06:48;7.97;;;1.63;;
22949;SDS011;11641;51.018;4.474;2022-11-25T01:09:14;8.27;;;1.38;;
22949;SDS011;11641;51.018;4.474;2022-11-25T01:11:45;6.45;;;1.10;;
22949;SDS011;11641;51.018;4.474;2022-11-25T01:14:13;10.05;;;1.40;;
22949;SDS011;11641;51.018;4.474;2022-11-25T01:16:39;11.95;;;1.20;;
22949;SDS011;11641;51.018;4.474;2022-11-25T01:19:04;6.40;;;1.15;;
22949;SDS011;11641;51.018;4.474;2022-11-25T01:21:32;9.57;;;1.05;;
22949;SDS011;11641;51.018;4.474;2022-11-25T01:23:59;10.05;;;1.20;;
22949;SDS011;11641;51.018;4.474;2022-11-25T01:26:26;7.18;;;1.00;;
22949;SDS011;11641;51.018;4.474;2022-11-25T01:28:56;6.28;;;1.08;;
22949;SDS011;11641;51.018;4.474;2022-11-25T01:31:31;4.88;;;0.90;;
22949;SDS011;11641;51.018;4.474;2022-11-25T01:34:02;6.68;;;1.25;;
22949;SDS011;11641;51.018;4.474;2022-11-25T01:36:30;6.88;;;1.25;;
22949;SDS011;11641;51.018;4.474;2022-11-25T01:38:57;4.75;;;0.90;;
22949;SDS011;11641;51.018;4.474;2022-11-25T01:41:28;6.55;;;0.80;;
22949;SDS011;11641;51.018;4.474;2022-11-25T01:44:08;4.45;;;0.77;;
22949;SDS011;11641;51.018;4.474;2022-11-25T01:54:25;6.63;;;0.75;;
22949;SDS011;11641;51.018;4.474;2022-11-25T01:57:05;3.65;;;0.77;;
22949;SDS011;11641;51.018;4.474;2022-11-25T01:59:36;2.47;;;0.60;;
22949;SDS011;11641;51.018;4.474;2022-11-25T02:02:05;4.05;;;0.60;;
22949;SDS011;11641;51.018;4.474;2022-11-25T02:04:33;3.72;;;0.82;;
22949;SDS011;11641;51.018;4.474;2022-11-25T02:10:03;8.30;;;1.10;;
22949;SDS011;11641;51.018;4.474;2022-11-25T02:12:35;6.68;;;0.93;;
22949;SDS011;11641;51.018;4.474;2022-11-25T02:15:05;3.05;;;0.63;;
22949;SDS011;11641;51.018;4.474;2022-11-25T02:17:31;5.55;;;0.95;;
22949;SDS011;11641;51.018;4.474;2022-11-25T02:20:09;4.55;;;0.85;;
22949;SDS011;11641;51.018;4.474;2022-11-25T02:22:56;6.60;;;0.75;;
22949;SDS011;11641;51.018;4.474;2022-11-25T02:25:28;6.75;;;0.82;;
22949;SDS011;11641;51.018;4.474;2022-11-25T02:28:00;3.90;;;0.63;;
22949;SDS011;11641;51.018;4.474;2022-11-25T02:30:30;3.58;;;0.60;;
22949;SDS011;11641;51.018;4.474;2022-11-25T02:32:58;3.65;;;0.70;;
22949;SDS011;11641;51.018;4.474;2022-11-25T02:35:32;5.25;;;0.82;;
22949;SDS011;11641;51.018;4.474;2022-11-25T02:40:48;3.67;;;0.73;;
22949;SDS011;11641;51.018;4.474;2022-11-25T02:43:17;5.47;;;1.43;;
22949;SDS011;11641;51.018;4.474;2022-11-25T02:45:46;7.55;;;2.45;;
22949;SDS011;11641;51.018;4.474;2022-11-25T02:48:20;4.43;;;1.80;;
22949;SDS011;11641;51.018;4.474;2022-11-25T02:50:46;4.22;;;1.00;;
22949;SDS011;11641;51.018;4.474;2022-11-25T02:53:12;3.15;;;1.17;;
22949;SDS011;11641;51.018;4.474;2022-11-25T02:55:38;3.47;;;0.75;;
22949;SDS011;11641;51.018;4.474;2022-11-25T02:58:04;4.82;;;0.80;;
22949;SDS011;11641;51.018;4.474;2022-11-25T03:00:32;6.15;;;1.00;;
22949;SDS011;11641;51.018;4.474;2022-11-25T03:02:59;4.55;;;0.70;;
22949;SDS011;11641;51.018;4.474;2022-11-25T03:05:25;6.18;;;0.73;;
22949;SDS011;11641;51.018;4.474;2022-11-25T03:07:51;6.10;;;0.90;;
22949;SDS011;11641;51.018;4.474;2022-11-25T03:10:17;3.28;;;0.70;;
22949;SDS011;11641;51.018;4.474;2022-11-25T03:12:43;3.33;;;0.98;;
22949;SDS011;11641;51.018;4.474;2022-11-25T03:15:11;2.53;;;0.80;;
22949;SDS011;11641;51.018;4.474;2022-11-25T03:17:37;6.85;;;0.80;;
22949;SDS011;11641;51.018;4.474;2022-11-25T03:20:06;6.47;;;0.75;;
22949;SDS011;11641;51.018;4.474;2022-11-25T03:22:34;2.95;;;0.68;;
22949;SDS011;11641;51.018;4.474;2022-11-25T03:25:03;3.08;;;0.73;;
22949;SDS011;11641;51.018;4.474;2022-11-25T03:27:29;3.70;;;1.00;;
22949;SDS011;11641;51.018;4.474;2022-11-25T03:30:19;4.65;;;0.77;;
22949;SDS011;11641;51.018;4.474;2022-11-25T03:32:47;4.20;;;0.70;;
22949;SDS011;11641;51.018;4.474;2022-11-25T03:35:13;5.68;;;0.80;;
22949;SDS011;11641;51.018;4.474;2022-11-25T03:37:42;3.97;;;0.90;;
22949;SDS011;11641;51.018;4.474;2022-11-25T03:40:09;7.22;;;1.23;;
22949;SDS011;11641;51.018;4.474;2022-11-25T03:42:37;6.00;;;1.08;;
22949;SDS011;11641;51.018;4.474;2022-11-25T03:45:07;7.10;;;1.20;;
22949;SDS011;11641;51.018;4.474;2022-11-25T03:47:34;6.63;;;1.08;;
22949;SDS011;11641;51.018;4.474;2022-11-25T03:50:01;7.20;;;1.10;;
22949;SDS011;11641;51.018;4.474;2022-11-25T03:52:27;5.75;;;1.35;;
22949;SDS011;11641;51.018;4.474;2022-11-25T03:54:52;6.55;;;1.10;;
22949;SDS011;11641;51.018;4.474;2022-11-25T03:57:18;4.68;;;1.40;;
22949;SDS011;11641;51.018;4.474;2022-11-25T03:59:44;8.20;;;1.10;;
22949;SDS011;11641;51.018;4.474;2022-11-25T04:02:09;7.82;;;1.33;;
22949;SDS011;11641;51.018;4.474;2022-11-25T04:04:36;9.52;;;1.27;;
22949;SDS011;11641;51.018;4.474;2022-11-25T04:07:02;8.43;;;1.63;;
22949;SDS011;11641;51.018;4.474;2022-11-25T04:09:28;7.43;;;2.00;;
22949;SDS011;11641;51.018;4.474;2022-11-25T04:11:54;12.68;;;1.80;;
22949;SDS011;11641;51.018;4.474;2022-11-25T04:14:39;10.45;;;1.70;;
22949;SDS011;11641;51.018;4.474;2022-11-25T04:17:04;5.63;;;1.70;;
22949;SDS011;11641;51.018;4.474;2022-11-25T04:19:30;12.50;;;2.38;;
22949;SDS011;11641;51.018;4.474;2022-11-25T04:21:56;13.93;;;1.92;;
22949;SDS011;11641;51.018;4.474;2022-11-25T04:24:25;12.60;;;1.90;;
22949;SDS011;11641;51.018;4.474;2022-11-25T04:26:51;6.20;;;1.58;;
22949;SDS011;11641;51.018;4.474;2022-11-25T04:29:17;8.75;;;2.00;;
22949;SDS011;11641;51.018;4.474;2022-11-25T04:31:43;12.32;;;2.47;;
22949;SDS011;11641;51.018;4.474;2022-11-25T04:34:09;9.43;;;2.08;;
22949;SDS011;11641;51.018;4.474;2022-11-25T04:36:35;14.40;;;2.58;;
22949;SDS011;11641;51.018;4.474;2022-11-25T04:39:01;16.67;;;2.30;;
22949;SDS011;11641;51.018;4.474;2022-11-25T04:41:27;19.27;;;2.42;;
22949;SDS011;11641;51.018;4.474;2022-11-25T04:43:53;13.05;;;2.20;;
22949;SDS011;11641;51.018;4.474;2022-11-25T04:46:20;16.48;;;2.40;;
22949;SDS011;11641;51.018;4.474;2022-11-25T04:48:47;13.07;;;2.08;;
22949;SDS011;11641;51.018;4.474;2022-11-25T04:51:14;10.93;;;2.13;;
22949;SDS011;11641;51.018;4.474;2022-11-25T04:53:42;19.25;;;2.17;;
22949;SDS011;11641;51.018;4.474;2022-11-25T04:56:11;19.55;;;2.50;;
22949;SDS011;11641;51.018;4.474;2022-11-25T04:58:41;10.73;;;2.35;;
22949;SDS011;11641;51.018;4.474;2022-11-25T05:01:26;11.52;;;2.55;;
22949;SDS011;11641;51.018;4.474;2022-11-25T05:03:51;9.90;;;1.90;;
22949;SDS011;11641;51.018;4.474;2022-11-25T05:06:17;12.38;;;2.63;;
22949;SDS011;11641;51.018;4.474;2022-11-25T05:08:43;10.25;;;2.35;;
22949;SDS011;11641;51.018;4.474;2022-11-25T05:11:12;15.18;;;2.17;;
22949;SDS011;11641;51.018;4.474;2022-11-25T05:13:37;9.38;;;1.98;;
22949;SDS011;11641;51.018;4.474;2022-11-25T05:16:03;7.95;;;1.75;;
22949;SDS011;11641;51.018;4.474;2022-11-25T05:18:29;9.05;;;2.40;;
22949;SDS011;11641;51.018;4.474;2022-11-25T05:20:59;6.57;;;1.90;;
22949;SDS011;11641;51.018;4.474;2022-11-25T05:25:59;9.75;;;1.80;;
22949;SDS011;11641;51.018;4.474;2022-11-25T05:28:26;10.60;;;2.25;;
22949;SDS011;11641;51.018;4.474;2022-11-25T05:30:52;16.45;;;2.75;;
22949;SDS011;11641;51.018;4.474;2022-11-25T05:33:18;13.90;;;2.28;;
22949;SDS011;11641;51.018;4.474;2022-11-25T05:35:43;12.63;;;2.10;;
22949;SDS011;11641;51.018;4.474;2022-11-25T05:38:09;7.95;;;1.75;;
22949;SDS011;11641;51.018;4.474;2022-11-25T05:40:36;11.80;;;2.08;;
22949;SDS011;11641;51.018;4.474;2022-11-25T05:43:04;9.38;;;1.98;;
22949;SDS011;11641;51.018;4.474;2022-11-25T05:45:29;8.40;;;1.95;;
22949;SDS011;11641;51.018;4.474;2022-11-25T05:47:55;8.18;;;2.00;;
22949;SDS011;11641;51.018;4.474;2022-11-25T05:50:23;8.48;;;2.10;;
22949;SDS011;11641;51.018;4.474;2022-11-25T05:52:49;7.65;;;2.08;;
22949;SDS011;11641;51.018;4.474;2022-11-25T05:55:14;10.48;;;2.22;;
22949;SDS011;11641;51.018;4.474;2022-11-25T05:57:40;10.90;;;1.90;;
22949;SDS011;11641;51.018;4.474;2022-11-25T06:00:06;10.43;;;1.83;;
22949;SDS011;11641;51.018;4.474;2022-11-25T06:02:32;10.25;;;1.83;;
22949;SDS011;11641;51.018;4.474;2022-11-25T06:04:59;7.93;;;2.10;;
22949;SDS011;11641;51.018;4.474;2022-11-25T06:07:26;8.93;;;2.08;;
22949;SDS011;11641;51.018;4.474;2022-11-25T06:09:51;11.10;;;1.85;;
22949;SDS011;11641;51.018;4.474;2022-11-25T06:12:19;12.90;;;2.20;;
22949;SDS011;11641;51.018;4.474;2022-11-25T06:14:45;6.93;;;1.77;;
22949;SDS011;11641;51.018;4.474;2022-11-25T06:17:11;8.10;;;1.77;;
22949;SDS011;11641;51.018;4.474;2022-11-25T06:19:37;13.70;;;2.38;;
22949;SDS011;11641;51.018;4.474;2022-11-25T06:22:02;11.57;;;2.08;;
22949;SDS011;11641;51.018;4.474;2022-11-25T06:24:28;11.35;;;2.30;;
22949;SDS011;11641;51.018;4.474;2022-11-25T06:26:54;5.95;;;1.67;;
22949;SDS011;11641;51.018;4.474;2022-11-25T06:29:20;9.55;;;2.00;;
22949;SDS011;11641;51.018;4.474;2022-11-25T06:31:47;9.18;;;1.95;;
22949;SDS011;11641;51.018;4.474;2022-11-25T06:34:13;10.60;;;1.90;;
22949;SDS011;11641;51.018;4.474;2022-11-25T06:36:39;12.90;;;2.00;;
22949;SDS011;11641;51.018;4.474;2022-11-25T06:39:05;9.25;;;2.15;;
22949;SDS011;11641;51.018;4.474;2022-11-25T06:41:32;11.23;;;2.20;;
22949;SDS011;11641;51.018;4.474;2022-11-25T06:43:57;7.05;;;1.90;;
22949;SDS011;11641;51.018;4.474;2022-11-25T06:46:23;10.48;;;2.17;;
22949;SDS011;11641;51.018;4.474;2022-11-25T06:48:49;12.55;;;2.50;;
22949;SDS011;11641;51.018;4.474;2022-11-25T06:51:17;11.52;;;2.67;;
22949;SDS011;11641;51.018;4.474;2022-11-25T06:53:43;14.35;;;2.30;;
22949;SDS011;11641;51.018;4.474;2022-11-25T06:56:20;10.25;;;2.28;;
22949;SDS011;11641;51.018;4.474;2022-11-25T06:58:48;18.02;;;2.92;;
22949;SDS011;11641;51.018;4.474;2022-11-25T07:01:15;10.73;;;2.92;;
22949;SDS011;11641;51.018;4.474;2022-11-25T07:03:46;13.27;;;3.55;;
22949;SDS011;11641;51.018;4.474;2022-11-25T07:06:14;13.38;;;3.00;;
22949;SDS011;11641;51.018;4.474;2022-11-25T07:08:41;9.52;;;2.83;;
22949;SDS011;11641;51.018;4.474;2022-11-25T07:11:11;15.00;;;2.80;;
22949;SDS011;11641;51.018;4.474;2022-11-25T07:13:45;14.43;;;2.90;;
22949;SDS011;11641;51.018;4.474;2022-11-25T07:16:12;9.13;;;2.33;;
22949;SDS011;11641;51.018;4.474;2022-11-25T07:18:39;11.48;;;3.00;;
22949;SDS011;11641;51.018;4.474;2022-11-25T07:21:12;16.33;;;3.53;;
22949;SDS011;11641;51.018;4.474;2022-11-25T07:23:44;14.23;;;3.25;;
22949;SDS011;11641;51.018;4.474;2022-11-25T07:26:11;21.23;;;3.78;;
22949;SDS011;11641;51.018;4.474;2022-11-25T07:28:38;18.35;;;3.25;;
22949;SDS011;11641;51.018;4.474;2022-11-25T07:31:08;15.65;;;2.83;;
22949;SDS011;11641;51.018;4.474;2022-11-25T07:33:35;10.15;;;2.78;;
22949;SDS011;11641;51.018;4.474;2022-11-25T07:36:04;14.43;;;2.55;;
22949;SDS011;11641;51.018;4.474;2022-11-25T07:38:32;16.05;;;2.97;;
22949;SDS011;11641;51.018;4.474;2022-11-25T07:41:03;18.67;;;3.33;;
22949;SDS011;11641;51.018;4.474;2022-11-25T07:43:37;12.18;;;3.00;;
22949;SDS011;11641;51.018;4.474;2022-11-25T07:48:55;15.48;;;4.30;;
22949;SDS011;11641;51.018;4.474;2022-11-25T07:53:56;18.58;;;3.20;;
22949;SDS011;11641;51.018;4.474;2022-11-25T07:56:24;14.93;;;3.42;;
22949;SDS011;11641;51.018;4.474;2022-11-25T07:58:51;14.77;;;3.03;;
22949;SDS011;11641;51.018;4.474;2022-11-25T08:01:21;14.15;;;3.10;;
22949;SDS011;11641;51.018;4.474;2022-11-25T08:03:51;15.75;;;2.97;;
22949;SDS011;11641;51.018;4.474;2022-11-25T08:06:19;18.45;;;2.90;;
22949;SDS011;11641;51.018;4.474;2022-11-25T08:08:47;21.63;;;3.30;;
22949;SDS011;11641;51.018;4.474;2022-11-25T08:11:18;14.93;;;3.08;;
22949;SDS011;11641;51.018;4.474;2022-11-25T08:13:46;18.52;;;3.75;;
22949;SDS011;11641;51.018;4.474;2022-11-25T08:16:12;17.58;;;2.78;;
22949;SDS011;11641;51.018;4.474;2022-11-25T08:18:40;12.60;;;2.60;;
22949;SDS011;11641;51.018;4.474;2022-11-25T08:21:07;14.23;;;2.97;;
22949;SDS011;11641;51.018;4.474;2022-11-25T08:23:35;14.60;;;3.10;;
22949;SDS011;11641;51.018;4.474;2022-11-25T08:26:03;20.30;;;3.33;;
22949;SDS011;11641;51.018;4.474;2022-11-25T08:28:29;13.85;;;2.97;;
22949;SDS011;11641;51.018;4.474;2022-11-25T08:31:02;15.80;;;3.28;;
22949;SDS011;11641;51.018;4.474;2022-11-25T08:33:31;15.70;;;3.03;;
22949;SDS011;11641;51.018;4.474;2022-11-25T08:35:57;24.35;;;5.78;;
22949;SDS011;11641;51.018;4.474;2022-11-25T08:38:25;16.77;;;2.92;;
22949;SDS011;11641;51.018;4.474;2022-11-25T08:40:51;20.70;;;2.92;;
22949;SDS011;11641;51.018;4.474;2022-11-25T08:43:20;13.18;;;3.03;;
22949;SDS011;11641;51.018;4.474;2022-11-25T08:45:47;17.30;;;3.22;;
22949;SDS011;11641;51.018;4.474;2022-11-25T08:48:19;13.57;;;3.00;;
22949;SDS011;11641;51.018;4.474;2022-11-25T08:50:48;16.23;;;3.85;;
22949;SDS011;11641;51.018;4.474;2022-11-25T08:53:19;11.57;;;2.55;;
22949;SDS011;11641;51.018;4.474;2022-11-25T08:55:46;8.35;;;2.92;;
22949;SDS011;11641;51.018;4.474;2022-11-25T08:58:12;11.52;;;2.78;;
22949;SDS011;11641;51.018;4.474;2022-11-25T09:00:42;14.45;;;3.20;;
22949;SDS011;11641;51.018;4.474;2022-11-25T09:03:09;12.90;;;3.25;;
22949;SDS011;11641;51.018;4.474;2022-11-25T09:05:39;16.23;;;4.60;;
22949;SDS011;11641;51.018;4.474;2022-11-25T09:08:06;16.52;;;3.38;;
22949;SDS011;11641;51.018;4.474;2022-11-25T09:10:34;12.50;;;2.78;;
22949;SDS011;11641;51.018;4.474;2022-11-25T09:13:02;11.00;;;2.92;;
22949;SDS011;11641;51.018;4.474;2022-11-25T09:15:28;14.13;;;3.65;;
22949;SDS011;11641;51.018;4.474;2022-11-25T09:18:00;7.63;;;2.35;;
22949;SDS011;11641;51.018;4.474;2022-11-25T09:20:30;11.77;;;2.53;;
22949;SDS011;11641;51.018;4.474;2022-11-25T09:23:00;10.80;;;2.78;;
22949;SDS011;11641;51.018;4.474;2022-11-25T09:25:29;11.60;;;3.53;;
22949;SDS011;11641;51.018;4.474;2022-11-25T09:27:55;9.65;;;2.13;;
22949;SDS011;11641;51.018;4.474;2022-11-25T09:30:21;10.50;;;2.80;;
22949;SDS011;11641;51.018;4.474;2022-11-25T09:32:49;10.23;;;3.00;;
22949;SDS011;11641;51.018;4.474;2022-11-25T09:35:16;10.48;;;2.65;;
22949;SDS011;11641;51.018;4.474;2022-11-25T09:37:42;12.32;;;2.70;;
22949;SDS011;11641;51.018;4.474;2022-11-25T09:40:20;8.93;;;2.38;;
22949;SDS011;11641;51.018;4.474;2022-11-25T09:52:02;8.55;;;2.35;;
22949;SDS011;11641;51.018;4.474;2022-11-25T09:54:43;6.60;;;1.83;;
22949;SDS011;11641;51.018;4.474;2022-11-25T09:57:19;7.13;;;1.90;;
22949;SDS011;11641;51.018;4.474;2022-11-25T10:02:41;9.75;;;2.10;;
22949;SDS011;11641;51.018;4.474;2022-11-25T10:05:25;10.68;;;2.38;;
22949;SDS011;11641;51.018;4.474;2022-11-25T10:07:56;6.40;;;2.10;;
22949;SDS011;11641;51.018;4.474;2022-11-25T10:10:29;6.43;;;2.03;;
22949;SDS011;11641;51.018;4.474;2022-11-25T10:13:02;5.70;;;1.85;;
22949;SDS011;11641;51.018;4.474;2022-11-25T10:15:38;8.88;;;2.13;;
22949;SDS011;11641;51.018;4.474;2022-11-25T10:20:51;7.43;;;1.55;;
22949;SDS011;11641;51.018;4.474;2022-11-25T10:23:22;6.47;;;2.40;;
22949;SDS011;11641;51.018;4.474;2022-11-25T10:25:54;7.95;;;1.98;;
22949;SDS011;11641;51.018;4.474;2022-11-25T10:28:32;8.57;;;2.30;;
22949;SDS011;11641;51.018;4.474;2022-11-25T10:33:44;8.50;;;2.42;;
22949;SDS011;11641;51.018;4.474;2022-11-25T10:36:35;7.03;;;1.90;;
22949;SDS011;11641;51.018;4.474;2022-11-25T10:39:16;9.63;;;1.90;;
22949;SDS011;11641;51.018;4.474;2022-11-25T10:44:35;6.82;;;2.17;;
22949;SDS011;11641;51.018;4.474;2022-11-25T10:49:45;7.05;;;2.08;;
22949;SDS011;11641;51.018;4.474;2022-11-25T10:52:35;6.68;;;2.20;;
22949;SDS011;11641;51.018;4.474;2022-11-25T10:55:20;6.97;;;1.90;;
22949;SDS011;11641;51.018;4.474;2022-11-25T10:57:49;6.00;;;1.55;;
22949;SDS011;11641;51.018;4.474;2022-11-25T11:00:32;7.65;;;1.55;;
22949;SDS011;11641;51.018;4.474;2022-11-25T11:03:18;5.43;;;2.00;;
22949;SDS011;11641;51.018;4.474;2022-11-25T11:05:56;7.22;;;2.10;;
22949;SDS011;11641;51.018;4.474;2022-11-25T11:08:27;9.18;;;2.38;;
22949;SDS011;11641;51.018;4.474;2022-11-25T11:11:16;6.95;;;2.08;;
22949;SDS011;11641;51.018;4.474;2022-11-25T11:13:47;7.07;;;1.80;;
22949;SDS011;11641;51.018;4.474;2022-11-25T11:16:35;11.02;;;2.45;;
22949;SDS011;11641;51.018;4.474;2022-11-25T11:19:02;6.70;;;2.03;;
22949;SDS011;11641;51.018;4.474;2022-11-25T11:21:32;8.63;;;2.60;;
22949;SDS011;11641;51.018;4.474;2022-11-25T11:24:00;8.52;;;2.58;;
22949;SDS011;11641;51.018;4.474;2022-11-25T11:26:31;8.48;;;2.05;;
22949;SDS011;11641;51.018;4.474;2022-11-25T11:31:39;14.75;;;6.10;;
22949;SDS011;11641;51.018;4.474;2022-11-25T11:48:02;12.23;;;3.17;;
22949;SDS011;11641;51.018;4.474;2022-11-25T11:50:47;16.58;;;3.42;;
22949;SDS011;11641;51.018;4.474;2022-11-25T11:53:29;7.85;;;3.00;;
22949;SDS011;11641;51.018;4.474;2022-11-25T11:56:06;9.07;;;2.60;;
22949;SDS011;11641;51.018;4.474;2022-11-25T12:04:27;8.40;;;2.75;;
22949;SDS011;11641;51.018;4.474;2022-11-25T12:06:58;8.95;;;2.50;;
22949;SDS011;11641;51.018;4.474;2022-11-25T12:09:26;11.63;;;3.70;;
22949;SDS011;11641;51.018;4.474;2022-11-25T12:11:57;8.57;;;2.75;;
22949;SDS011;11641;51.018;4.474;2022-11-25T12:14:49;10.07;;;3.20;;
22949;SDS011;11641;51.018;4.474;2022-11-25T12:17:22;11.65;;;4.05;;
22949;SDS011;11641;51.018;4.474;2022-11-25T12:20:02;8.85;;;2.97;;
22949;SDS011;11641;51.018;4.474;2022-11-25T12:22:36;8.23;;;2.58;;
22949;SDS011;11641;51.018;4.474;2022-11-25T12:25:20;11.10;;;2.50;;
22949;SDS011;11641;51.018;4.474;2022-11-25T12:27:59;11.02;;;3.38;;
22949;SDS011;11641;51.018;4.474;2022-11-25T12:30:40;13.15;;;2.72;;
22949;SDS011;11641;51.018;4.474;2022-11-25T12:33:20;9.30;;;2.63;;
22949;SDS011;11641;51.018;4.474;2022-11-25T12:35:53;9.77;;;2.75;;
22949;SDS011;11641;51.018;4.474;2022-11-25T12:38:32;10.05;;;2.75;;
22949;SDS011;11641;51.018;4.474;2022-11-25T12:41:34;11.95;;;2.72;;
22949;SDS011;11641;51.018;4.474;2022-11-25T12:44:12;13.35;;;2.95;;
22949;SDS011;11641;51.018;4.474;2022-11-25T12:46:48;12.88;;;2.88;;
22949;SDS011;11641;51.018;4.474;2022-11-25T12:51:55;7.95;;;2.10;;
22949;SDS011;11641;51.018;4.474;2022-11-25T12:54:43;11.18;;;2.55;;
22949;SDS011;11641;51.018;4.474;2022-11-25T13:08:49;10.80;;;2.90;;
22949;SDS011;11641;51.018;4.474;2022-11-25T13:16:43;12.43;;;2.90;;
22949;SDS011;11641;51.018;4.474;2022-11-25T13:19:14;15.27;;;3.40;;
22949;SDS011;11641;51.018;4.474;2022-11-25T13:22:00;15.55;;;3.40;;
22949;SDS011;11641;51.018;4.474;2022-11-25T13:24:36;13.80;;;3.75;;
22949;SDS011;11641;51.018;4.474;2022-11-25T13:27:03;14.27;;;6.90;;
22949;SDS011;11641;51.018;4.474;2022-11-25T13:31:56;13.90;;;4.38;;
22949;SDS011;11641;51.018;4.474;2022-11-25T13:34:30;16.92;;;3.58;;
22949;SDS011;11641;51.018;4.474;2022-11-25T13:40:17;12.35;;;3.30;;
22949;SDS011;11641;51.018;4.474;2022-11-25T13:42:45;14.73;;;2.70;;
22949;SDS011;11641;51.018;4.474;2022-11-25T13:45:29;11.80;;;2.65;;
22949;SDS011;11641;51.018;4.474;2022-11-25T13:48:04;11.40;;;3.20;;
22949;SDS011;11641;51.018;4.474;2022-11-25T13:50:37;40.15;;;25.75;;
22949;SDS011;11641;51.018;4.474;2022-11-25T13:53:20;14.52;;;6.10;;
22949;SDS011;11641;51.018;4.474;2022-11-25T13:55:54;13.25;;;2.95;;
22949;SDS011;11641;51.018;4.474;2022-11-25T13:58:38;15.82;;;3.72;;
22949;SDS011;11641;51.018;4.474;2022-11-25T14:01:21;14.13;;;3.50;;
22949;SDS011;11641;51.018;4.474;2022-11-25T14:03:50;10.35;;;3.30;;
22949;SDS011;11641;51.018;4.474;2022-11-25T14:06:21;13.80;;;3.20;;
22949;SDS011;11641;51.018;4.474;2022-11-25T14:09:03;13.90;;;3.40;;
22949;SDS011;11641;51.018;4.474;2022-11-25T14:14:22;14.02;;;3.25;;
22949;SDS011;11641;51.018;4.474;2022-11-25T14:25:51;14.02;;;3.10;;
22949;SDS011;11641;51.018;4.474;2022-11-25T14:30:57;15.95;;;3.72;;
22949;SDS011;11641;51.018;4.474;2022-11-25T14:33:33;13.43;;;3.25;;
22949;SDS011;11641;51.018;4.474;2022-11-25T14:36:18;15.10;;;3.28;;
22949;SDS011;11641;51.018;4.474;2022-11-25T14:38:56;18.02;;;3.85;;
22949;SDS011;11641;51.018;4.474;2022-11-25T14:41:35;18.23;;;3.50;;
22949;SDS011;11641;51.018;4.474;2022-11-25T14:44:08;19.30;;;3.53;;
22949;SDS011;11641;51.018;4.474;2022-11-25T14:46:49;16.60;;;3.30;;
22949;SDS011;11641;51.018;4.474;2022-11-25T14:49:19;25.42;;;3.30;;
22949;SDS011;11641;51.018;4.474;2022-11-25T14:51:46;15.75;;;2.78;;
22949;SDS011;11641;51.018;4.474;2022-11-25T14:54:14;16.45;;;3.60;;
22949;SDS011;11641;51.018;4.474;2022-11-25T14:56:45;14.98;;;3.13;;
22949;SDS011;11641;51.018;4.474;2022-11-25T14:59:12;19.80;;;3.20;;
22949;SDS011;11641;51.018;4.474;2022-11-25T15:01:49;19.92;;;4.22;;
22949;SDS011;11641;51.018;4.474;2022-11-25T15:04:19;17.98;;;3.20;;
22949;SDS011;11641;51.018;4.474;2022-11-25T15:06:48;20.20;;;3.10;;
22949;SDS011;11641;51.018;4.474;2022-11-25T15:09:29;33.17;;;11.65;;
22949;SDS011;11641;51.018;4.474;2022-11-25T15:12:09;13.65;;;3.80;;
22949;SDS011;11641;51.018;4.474;2022-11-25T15:14:40;24.33;;;3.47;;
22949;SDS011;11641;51.018;4.474;2022-11-25T15:19:55;14.40;;;3.10;;
22949;SDS011;11641;51.018;4.474;2022-11-25T15:22:23;13.25;;;2.80;;
22949;SDS011;11641;51.018;4.474;2022-11-25T15:24:50;21.27;;;3.72;;
22949;SDS011;11641;51.018;4.474;2022-11-25T15:27:24;14.00;;;3.42;;
22949;SDS011;11641;51.018;4.474;2022-11-25T15:29:52;19.63;;;3.63;;
22949;SDS011;11641;51.018;4.474;2022-11-25T15:32:27;15.15;;;3.38;;
22949;SDS011;11641;51.018;4.474;2022-11-25T15:34:56;18.13;;;3.20;;
22949;SDS011;11641;51.018;4.474;2022-11-25T15:37:24;18.90;;;3.63;;
22949;SDS011;11641;51.018;4.474;2022-11-25T15:42:53;15.15;;;3.85;;
22949;SDS011;11641;51.018;4.474;2022-11-25T15:45:21;17.63;;;3.95;;
22949;SDS011;11641;51.018;4.474;2022-11-25T15:47:51;16.50;;;3.78;;
22949;SDS011;11641;51.018;4.474;2022-11-25T15:50:19;22.48;;;3.53;;
22949;SDS011;11641;51.018;4.474;2022-11-25T15:52:57;16.48;;;4.15;;
22949;SDS011;11641;51.018;4.474;2022-11-25T15:58:04;17.45;;;4.03;;
22949;SDS011;11641;51.018;4.474;2022-11-25T16:00:41;23.55;;;3.95;;
22949;SDS011;11641;51.018;4.474;2022-11-25T16:03:44;20.30;;;3.72;;
22949;SDS011;11641;51.018;4.474;2022-11-25T16:08:56;21.65;;;6.05;;
22949;SDS011;11641;51.018;4.474;2022-11-25T16:11:25;16.60;;;4.50;;
22949;SDS011;11641;51.018;4.474;2022-11-25T16:14:15;25.98;;;6.57;;
22949;SDS011;11641;51.018;4.474;2022-11-25T16:16:41;18.50;;;4.30;;
22949;SDS011;11641;51.018;4.474;2022-11-25T16:29:16;23.75;;;6.28;;
22949;SDS011;11641;51.018;4.474;2022-11-25T16:31:45;24.98;;;5.72;;
22949;SDS011;11641;51.018;4.474;2022-11-25T16:34:16;18.25;;;5.90;;
22949;SDS011;11641;51.018;4.474;2022-11-25T16:36:43;25.58;;;5.68;;
22949;SDS011;11641;51.018;4.474;2022-11-25T16:39:09;23.27;;;6.20;;
22949;SDS011;11641;51.018;4.474;2022-11-25T16:41:34;21.98;;;6.18;;
22949;SDS011;11641;51.018;4.474;2022-11-25T16:44:00;28.40;;;6.18;;
22949;SDS011;11641;51.018;4.474;2022-11-25T16:46:29;18.70;;;5.13;;
22949;SDS011;11641;51.018;4.474;2022-11-25T16:48:56;23.15;;;6.80;;
22949;SDS011;11641;51.018;4.474;2022-11-25T16:51:22;21.48;;;6.38;;
22949;SDS011;11641;51.018;4.474;2022-11-25T16:53:49;21.02;;;6.47;;
22949;SDS011;11641;51.018;4.474;2022-11-25T16:56:38;20.35;;;5.88;;
22949;SDS011;11641;51.018;4.474;2022-11-25T16:59:03;23.23;;;6.95;;
22949;SDS011;11641;51.018;4.474;2022-11-25T17:01:29;23.60;;;6.53;;
22949;SDS011;11641;51.018;4.474;2022-11-25T17:03:57;19.98;;;5.95;;
22949;SDS011;11641;51.018;4.474;2022-11-25T17:06:23;23.17;;;6.90;;